Time;durP1;ratioP1;P1;durP2;ratioP2;P2;SDS_P1;SDS_P2;PMS_P1;PMS_P2;Temp;Humidity;BMP_temperature;BMP_pressure;BME280_temperature;BME280_humidity;BME280_pressure;Samples;Min_cycle;Max_cycle;Signal;HPM_P1;HPM_P2
2021/10/22 00:01:43;;;;;;;2.20;0.70;;;;;;;;;;5127307;27;20027;-43
2021/10/22 00:04:09;;;;;;;1.08;0.60;;;;;;;;;;5133942;27;20051;-45
2021/10/22 00:06:35;;;;;;;1.02;0.88;;;;;;;;;;5133069;27;20027;-44
2021/10/22 00:09:01;;;;;;;1.35;0.50;;;;;;;;;;5133891;27;20094;-43
2021/10/22 00:11:27;;;;;;;0.82;0.40;;;;;;;;;;5133422;27;20019;-45
2021/10/22 00:13:53;;;;;;;1.05;0.50;;;;;;;;;;5118477;27;20038;-43
2021/10/22 00:16:21;;;;;;;1.08;0.52;;;;;;;;;;5113105;28;20103;-45
2021/10/22 00:18:47;;;;;;;1.13;0.60;;;;;;;;;;5112237;28;20098;-46
2021/10/22 00:21:13;;;;;;;1.30;0.50;;;;;;;;;;5129545;27;20050;-43
2021/10/22 00:23:39;;;;;;;1.23;0.40;;;;;;;;;;5132808;27;20072;-43
2021/10/22 00:26:05;;;;;;;1.13;0.68;;;;;;;;;;5133175;27;20054;-43
2021/10/22 00:28:31;;;;;;;1.02;0.68;;;;;;;;;;5133056;27;20054;-45
2021/10/22 00:30:57;;;;;;;0.70;0.35;;;;;;;;;;5132694;27;20429;-44
2021/10/22 00:33:23;;;;;;;2.17;0.52;;;;;;;;;;5133360;27;20023;-43
2021/10/22 00:35:49;;;;;;;0.80;0.40;;;;;;;;;;5132337;27;20050;-44
2021/10/22 00:38:15;;;;;;;0.55;0.30;;;;;;;;;;5133449;27;20023;-43
2021/10/22 00:40:42;;;;;;;2.15;0.60;;;;;;;;;;5132468;27;20031;-44
2021/10/22 00:43:08;;;;;;;1.00;0.63;;;;;;;;;;5114658;27;20106;-43
2021/10/22 00:45:34;;;;;;;0.43;0.30;;;;;;;;;;5132514;27;20019;-45
2021/10/22 00:48:00;;;;;;;1.27;0.50;;;;;;;;;;5133340;27;20128;-45
2021/10/22 00:50:27;;;;;;;1.30;0.90;;;;;;;;;;5118589;27;20475;-43
2021/10/22 00:52:53;;;;;;;1.15;0.50;;;;;;;;;;5111650;28;20667;-43
2021/10/22 00:55:19;;;;;;;1.42;0.55;;;;;;;;;;5127187;27;20015;-43
2021/10/22 00:57:46;;;;;;;0.95;0.50;;;;;;;;;;5116704;27;20027;-43
2021/10/22 01:00:12;;;;;;;1.17;0.50;;;;;;;;;;5112278;28;20051;-43
2021/10/22 01:02:39;;;;;;;0.98;0.47;;;;;;;;;;5111582;28;20012;-43
2021/10/22 01:05:09;;;;;;;1.40;0.40;;;;;;;;;;5112413;28;20047;-43
2021/10/22 01:07:38;;;;;;;1.23;0.77;;;;;;;;;;5112622;28;20130;-43
2021/10/22 01:10:04;;;;;;;1.17;0.63;;;;;;;;;;5112636;28;20099;-43
2021/10/22 01:12:31;;;;;;;4.20;1.00;;;;;;;;;;5113883;28;20085;-43
2021/10/22 01:14:57;;;;;;;1.02;0.85;;;;;;;;;;5127961;27;20079;-43
2021/10/22 01:17:43;;;;;;;1.42;0.50;;;;;;;;;;5116800;28;20071;-43
2021/10/22 01:20:12;;;;;;;1.10;0.90;;;;;;;;;;5123163;27;20011;-43
2021/10/22 01:22:39;;;;;;;0.70;0.50;;;;;;;;;;5115649;28;20055;-43
2021/10/22 01:25:06;;;;;;;1.00;0.50;;;;;;;;;;5116221;28;20102;-43
2021/10/22 01:27:32;;;;;;;1.48;0.70;;;;;;;;;;5116262;28;20046;-43
2021/10/22 01:29:58;;;;;;;0.88;0.40;;;;;;;;;;5115969;28;20026;-43
2021/10/22 01:32:24;;;;;;;0.73;0.50;;;;;;;;;;5130887;27;20031;-43
2021/10/22 01:34:50;;;;;;;0.80;0.50;;;;;;;;;;5135436;27;20043;-43
2021/10/22 01:37:16;;;;;;;1.95;0.50;;;;;;;;;;5136716;27;20020;-43
2021/10/22 01:39:42;;;;;;;1.67;0.40;;;;;;;;;;5135986;27;20053;-44
2021/10/22 01:42:08;;;;;;;1.98;0.60;;;;;;;;;;5136565;27;20092;-43
2021/10/22 01:44:35;;;;;;;1.38;0.52;;;;;;;;;;5136154;27;20019;-43
2021/10/22 01:47:01;;;;;;;0.82;0.60;;;;;;;;;;5108057;27;20368;-44
2021/10/22 01:49:27;;;;;;;1.70;0.80;;;;;;;;;;5123881;27;20077;-43
2021/10/22 01:51:53;;;;;;;1.15;0.45;;;;;;;;;;5124689;27;20086;-45
2021/10/22 01:54:19;;;;;;;1.00;0.38;;;;;;;;;;5124911;27;20019;-45
2021/10/22 01:56:45;;;;;;;0.80;0.57;;;;;;;;;;5122718;27;20015;-43
2021/10/22 01:59:11;;;;;;;0.80;0.43;;;;;;;;;;5125801;27;20075;-43
2021/10/22 02:01:37;;;;;;;1.05;0.50;;;;;;;;;;5105517;27;20505;-46
2021/10/22 02:04:03;;;;;;;0.80;0.50;;;;;;;;;;5123963;27;20062;-43
2021/10/22 02:06:29;;;;;;;0.60;0.50;;;;;;;;;;5125557;27;20027;-43
2021/10/22 02:08:55;;;;;;;1.17;0.65;;;;;;;;;;5121433;27;20464;-43
2021/10/22 02:11:21;;;;;;;0.93;0.40;;;;;;;;;;5125298;27;20030;-43
2021/10/22 02:13:48;;;;;;;1.75;0.45;;;;;;;;;;5122998;27;20023;-43
2021/10/22 02:16:14;;;;;;;1.27;0.50;;;;;;;;;;5121407;27;20011;-43
2021/10/22 02:18:40;;;;;;;1.75;0.57;;;;;;;;;;5123877;27;20405;-43
2021/10/22 02:21:06;;;;;;;0.60;0.47;;;;;;;;;;5125002;27;20030;-43
2021/10/22 02:23:32;;;;;;;1.35;0.70;;;;;;;;;;5121094;27;20030;-43
2021/10/22 02:25:59;;;;;;;1.70;0.68;;;;;;;;;;5123689;27;20721;-43
2021/10/22 02:28:25;;;;;;;2.03;0.70;;;;;;;;;;5123301;27;20023;-44
2021/10/22 02:30:51;;;;;;;1.63;0.70;;;;;;;;;;5120750;27;20027;-44
2021/10/22 02:33:17;;;;;;;1.80;0.50;;;;;;;;;;5124973;27;20016;-46
2021/10/22 02:35:43;;;;;;;2.55;0.57;;;;;;;;;;5122539;27;20047;-44
2021/10/22 02:38:09;;;;;;;1.17;0.30;;;;;;;;;;5122381;27;20031;-43
2021/10/22 02:40:35;;;;;;;4.55;0.75;;;;;;;;;;5121968;27;20012;-43
2021/10/22 02:43:01;;;;;;;1.60;0.73;;;;;;;;;;5123333;27;20106;-43
2021/10/22 02:45:27;;;;;;;0.75;0.55;;;;;;;;;;5123568;27;20598;-43
2021/10/22 02:47:53;;;;;;;0.80;0.60;;;;;;;;;;5122208;27;20023;-43
2021/10/22 02:50:21;;;;;;;0.68;0.45;;;;;;;;;;5123611;27;20008;-44
2021/10/22 02:52:47;;;;;;;0.90;0.40;;;;;;;;;;5121494;27;20034;-44
2021/10/22 02:55:13;;;;;;;0.57;0.40;;;;;;;;;;5124534;27;20473;-45
2021/10/22 02:57:39;;;;;;;1.75;0.57;;;;;;;;;;5121504;27;20023;-43
2021/10/22 03:00:06;;;;;;;1.38;0.50;;;;;;;;;;5123738;27;20019;-43
2021/10/22 03:02:32;;;;;;;2.45;0.65;;;;;;;;;;5121545;27;20120;-43
2021/10/22 03:04:58;;;;;;;1.50;0.77;;;;;;;;;;5122861;27;20495;-44
2021/10/22 03:07:24;;;;;;;2.42;0.50;;;;;;;;;;5124205;27;20015;-43
2021/10/22 03:09:50;;;;;;;1.92;0.52;;;;;;;;;;5121850;27;20023;-43
2021/10/22 03:12:16;;;;;;;1.75;0.77;;;;;;;;;;5122115;27;20023;-43
2021/10/22 03:14:42;;;;;;;1.70;0.70;;;;;;;;;;5104141;27;20133;-43
2021/10/22 03:17:08;;;;;;;2.15;0.88;;;;;;;;;;5120382;27;20019;-43
2021/10/22 03:19:34;;;;;;;2.08;0.70;;;;;;;;;;5121409;27;20205;-43
2021/10/22 03:22:00;;;;;;;1.00;0.60;;;;;;;;;;5122307;27;20463;-43
2021/10/22 03:24:26;;;;;;;1.85;0.65;;;;;;;;;;5123839;27;20012;-43
2021/10/22 03:26:52;;;;;;;1.35;0.43;;;;;;;;;;5121533;27;20073;-43
2021/10/22 03:29:19;;;;;;;1.63;0.70;;;;;;;;;;5122859;27;20023;-43
2021/10/22 03:31:47;;;;;;;3.20;0.60;;;;;;;;;;5122284;27;20085;-43
2021/10/22 03:34:13;;;;;;;1.80;0.60;;;;;;;;;;5121710;27;20022;-43
2021/10/22 03:36:40;;;;;;;1.80;0.77;;;;;;;;;;5121685;27;20042;-45
2021/10/22 03:39:06;;;;;;;1.85;0.80;;;;;;;;;;5112693;27;20866;-44
2021/10/22 03:41:32;;;;;;;1.38;0.50;;;;;;;;;;5121517;27;20016;-44
2021/10/22 03:43:58;;;;;;;3.47;0.70;;;;;;;;;;5123620;27;20057;-44
2021/10/22 03:46:24;;;;;;;1.65;0.82;;;;;;;;;;5121087;27;20386;-46
2021/10/22 03:48:50;;;;;;;1.65;0.70;;;;;;;;;;5120100;27;20023;-44
2021/10/22 03:51:16;;;;;;;2.17;0.85;;;;;;;;;;5123323;27;20015;-44
2021/10/22 03:53:43;;;;;;;1.25;0.70;;;;;;;;;;5120436;27;20027;-46
2021/10/22 03:56:09;;;;;;;0.47;0.40;;;;;;;;;;5105013;27;20023;-44
2021/10/22 03:58:35;;;;;;;1.10;0.47;;;;;;;;;;5120982;27;20477;-43
2021/10/22 04:01:01;;;;;;;1.23;0.60;;;;;;;;;;5121255;27;20098;-46
2021/10/22 04:03:27;;;;;;;1.98;0.73;;;;;;;;;;5102794;27;20023;-44
2021/10/22 04:05:53;;;;;;;3.03;0.90;;;;;;;;;;5121765;27;20069;-43
2021/10/22 04:08:20;;;;;;;4.05;0.70;;;;;;;;;;5133307;27;20476;-45
2021/10/22 04:10:46;;;;;;;1.42;0.63;;;;;;;;;;5113747;27;20015;-45
2021/10/22 04:13:12;;;;;;;3.30;0.80;;;;;;;;;;5124099;27;20455;-44
2021/10/22 04:15:41;;;;;;;3.85;0.70;;;;;;;;;;5124194;27;20077;-43
2021/10/22 04:18:07;;;;;;;2.40;0.65;;;;;;;;;;5112770;27;20023;-45
2021/10/22 04:20:33;;;;;;;3.22;0.73;;;;;;;;;;5123601;27;20394;-44
2021/10/22 04:22:59;;;;;;;1.92;0.70;;;;;;;;;;5132407;27;20039;-44
2021/10/22 04:25:29;;;;;;;2.05;0.63;;;;;;;;;;5133070;27;20016;-46
2021/10/22 04:27:55;;;;;;;2.85;0.60;;;;;;;;;;5132329;27;20461;-45
2021/10/22 04:30:22;;;;;;;3.10;1.00;;;;;;;;;;5127254;27;20019;-46
2021/10/22 04:32:48;;;;;;;1.58;0.68;;;;;;;;;;5111829;28;20027;-45
2021/10/22 04:35:14;;;;;;;2.92;0.70;;;;;;;;;;5113106;27;20039;-44
2021/10/22 04:40:31;;;;;;;2.43;1.17;;;;;;;;;;5120156;27;20099;-43
2021/10/22 04:43:08;;;;;;;1.98;0.57;;;;;;;;;;5115642;27;20029;-44
2021/10/22 04:45:35;;;;;;;8.98;0.88;;;;;;;;;;5116768;27;20020;-44
2021/10/22 04:48:01;;;;;;;3.28;0.73;;;;;;;;;;5120620;27;20015;-43
2021/10/22 04:50:28;;;;;;;1.45;0.63;;;;;;;;;;5103341;28;20022;-43
2021/10/22 04:52:55;;;;;;;3.80;1.50;;;;;;;;;;5121439;27;20067;-43
2021/10/22 04:55:22;;;;;;;0.98;0.63;;;;;;;;;;5120263;27;20039;-44
2021/10/22 04:57:48;;;;;;;1.63;0.50;;;;;;;;;;5118288;27;20070;-43
2021/10/22 05:00:15;;;;;;;1.67;0.50;;;;;;;;;;5121720;27;20023;-46
2021/10/22 05:02:41;;;;;;;2.22;0.90;;;;;;;;;;5111291;28;20468;-43
2021/10/22 05:05:07;;;;;;;2.92;0.82;;;;;;;;;;5113094;28;20035;-44
2021/10/22 05:07:33;;;;;;;1.17;0.63;;;;;;;;;;5119211;28;20121;-43
2021/10/22 05:09:59;;;;;;;5.13;0.77;;;;;;;;;;5111247;28;20392;-43
2021/10/22 05:12:25;;;;;;;2.60;0.77;;;;;;;;;;5115865;28;20024;-43
2021/10/22 05:14:52;;;;;;;2.50;1.00;;;;;;;;;;5124519;28;20168;-42
2021/10/22 05:17:18;;;;;;;3.10;0.82;;;;;;;;;;5132723;28;20095;-43
2021/10/22 05:19:44;;;;;;;3.90;1.08;;;;;;;;;;5115252;28;20094;-43
2021/10/22 05:22:10;;;;;;;7.80;1.75;;;;;;;;;;5132906;28;20033;-42
2021/10/22 05:24:36;;;;;;;2.38;0.70;;;;;;;;;;5114446;28;20046;-43
2021/10/22 05:27:02;;;;;;;2.28;0.70;;;;;;;;;;5132254;28;20046;-44
2021/10/22 05:29:28;;;;;;;3.08;0.80;;;;;;;;;;5132967;28;20046;-43
2021/10/22 05:31:54;;;;;;;2.45;0.70;;;;;;;;;;5111646;28;20089;-44
2021/10/22 05:34:21;;;;;;;4.57;0.70;;;;;;;;;;5111544;28;20041;-44
2021/10/22 05:36:50;;;;;;;2.47;0.70;;;;;;;;;;5111347;28;20077;-43
2021/10/22 05:39:18;;;;;;;3.25;0.60;;;;;;;;;;5111455;28;20027;-43
2021/10/22 05:41:44;;;;;;;5.32;1.33;;;;;;;;;;5111252;28;20359;-43
2021/10/22 05:44:10;;;;;;;5.28;0.85;;;;;;;;;;5111656;28;20028;-43
2021/10/22 05:46:37;;;;;;;4.30;0.98;;;;;;;;;;5111875;28;20041;-43
2021/10/22 05:49:03;;;;;;;4.10;1.15;;;;;;;;;;5117725;28;20023;-43
2021/10/22 05:51:29;;;;;;;4.10;1.58;;;;;;;;;;5131834;28;20019;-44
2021/10/22 05:53:56;;;;;;;4.85;0.82;;;;;;;;;;5131330;28;20117;-44
2021/10/22 05:56:22;;;;;;;4.93;0.88;;;;;;;;;;5115458;28;20024;-42
2021/10/22 05:58:48;;;;;;;3.00;1.00;;;;;;;;;;5132501;27;20016;-42
2021/10/22 06:01:14;;;;;;;2.80;1.10;;;;;;;;;;5135546;27;20028;-41
2021/10/22 06:03:40;;;;;;;2.45;1.00;;;;;;;;;;5125007;27;20031;-43
2021/10/22 06:06:06;;;;;;;5.45;0.95;;;;;;;;;;5114767;27;20019;-43
2021/10/22 06:08:32;;;;;;;3.20;0.82;;;;;;;;;;5119274;27;20024;-41
2021/10/22 06:10:59;;;;;;;5.60;1.20;;;;;;;;;;5104257;27;20891;-42
2021/10/22 06:13:25;;;;;;;3.92;0.98;;;;;;;;;;5132774;27;20030;-43
2021/10/22 06:15:51;;;;;;;3.38;1.10;;;;;;;;;;5134314;27;20011;-41
2021/10/22 06:18:19;;;;;;;2.35;0.90;;;;;;;;;;5117481;27;20023;-43
2021/10/22 06:25:58;;;;;;;4.30;0.95;;;;;;;;;;5114381;27;20364;-44
2021/10/22 06:28:24;;;;;;;5.72;0.95;;;;;;;;;;5114867;27;20103;-43
2021/10/22 06:30:51;;;;;;;3.45;1.02;;;;;;;;;;5114016;28;20055;-43
2021/10/22 06:33:17;;;;;;;8.85;1.20;;;;;;;;;;5114642;27;20046;-42
2021/10/22 06:35:45;;;;;;;4.18;1.20;;;;;;;;;;5113985;28;20079;-42
2021/10/22 06:38:11;;;;;;;6.47;1.52;;;;;;;;;;5127258;27;20110;-41
2021/10/22 06:40:37;;;;;;;6.57;1.17;;;;;;;;;;5117364;27;20452;-42
2021/10/22 06:43:03;;;;;;;5.05;1.58;;;;;;;;;;5113709;28;20048;-42
2021/10/22 06:45:29;;;;;;;6.72;1.35;;;;;;;;;;5124215;27;20409;-42
2021/10/22 06:47:55;;;;;;;4.75;1.20;;;;;;;;;;5134715;27;20047;-42
2021/10/22 06:50:21;;;;;;;4.10;1.30;;;;;;;;;;5135353;27;20072;-42
2021/10/22 06:52:49;;;;;;;4.25;1.05;;;;;;;;;;5133526;27;20456;-41
2021/10/22 06:55:15;;;;;;;7.78;1.77;;;;;;;;;;5135143;27;20022;-42
2021/10/22 06:57:41;;;;;;;6.75;1.60;;;;;;;;;;5134361;27;20023;-42
2021/10/22 07:00:08;;;;;;;6.45;1.35;;;;;;;;;;5134440;27;20020;-42
2021/10/22 07:02:39;;;;;;;6.55;1.30;;;;;;;;;;5134653;27;20027;-42
2021/10/22 07:05:12;;;;;;;4.25;1.00;;;;;;;;;;5134316;27;20035;-42
2021/10/22 07:07:38;;;;;;;4.75;1.42;;;;;;;;;;5122604;27;20037;-42
2021/10/22 07:10:05;;;;;;;5.22;1.25;;;;;;;;;;5122095;27;20527;-42
2021/10/22 07:12:31;;;;;;;8.93;1.10;;;;;;;;;;5127187;27;20399;-42
2021/10/22 07:14:57;;;;;;;6.82;1.00;;;;;;;;;;5127702;27;20523;-42
2021/10/22 07:17:23;;;;;;;6.32;1.17;;;;;;;;;;5133671;27;20959;-42
2021/10/22 07:19:49;;;;;;;5.05;1.50;;;;;;;;;;5118193;27;20372;-42
2021/10/22 07:22:16;;;;;;;2.80;1.08;;;;;;;;;;5134542;27;20015;-42
2021/10/22 07:24:42;;;;;;;3.30;0.93;;;;;;;;;;5134434;27;20030;-43
2021/10/22 07:27:08;;;;;;;3.42;1.00;;;;;;;;;;5133814;27;20012;-42
2021/10/22 07:29:34;;;;;;;3.05;1.17;;;;;;;;;;5114996;27;20477;-42
2021/10/22 07:32:00;;;;;;;4.05;1.13;;;;;;;;;;5113035;28;20008;-44
2021/10/22 07:34:27;;;;;;;4.00;1.42;;;;;;;;;;5113562;28;20020;-41
2021/10/22 07:36:54;;;;;;;5.78;1.80;;;;;;;;;;5112869;28;20379;-42
2021/10/22 07:39:20;;;;;;;2.90;1.40;;;;;;;;;;5113793;27;20012;-42
2021/10/22 07:41:46;;;;;;;5.05;1.10;;;;;;;;;;5112904;28;20020;-42
2021/10/22 07:44:12;;;;;;;2.17;1.23;;;;;;;;;;5113940;28;20058;-42
2021/10/22 07:46:39;;;;;;;2.97;1.00;;;;;;;;;;5113742;28;20189;-42
2021/10/22 07:49:05;;;;;;;2.88;1.23;;;;;;;;;;5112653;28;20072;-45
2021/10/22 07:51:31;;;;;;;5.85;1.73;;;;;;;;;;5120045;27;20026;-42
2021/10/22 07:53:57;;;;;;;6.50;1.17;;;;;;;;;;5132900;27;20027;-44
2021/10/22 07:56:23;;;;;;;2.40;0.90;;;;;;;;;;5130420;27;20073;-43
2021/10/22 07:58:51;;;;;;;3.17;1.00;;;;;;;;;;5112549;28;20456;-44
2021/10/22 08:01:18;;;;;;;5.13;1.52;;;;;;;;;;5114333;27;20069;-44
2021/10/22 08:03:45;;;;;;;3.60;1.02;;;;;;;;;;5129248;27;20459;-42
2021/10/22 08:06:13;;;;;;;3.60;1.17;;;;;;;;;;5118325;27;20028;-43
2021/10/22 08:08:40;;;;;;;3.97;1.15;;;;;;;;;;5122653;27;20415;-44
2021/10/22 08:11:06;;;;;;;6.68;1.70;;;;;;;;;;5124377;27;20050;-42
2021/10/22 08:13:32;;;;;;;4.07;1.35;;;;;;;;;;5125868;27;20027;-43
2021/10/22 08:15:58;;;;;;;4.45;1.38;;;;;;;;;;5126282;27;20023;-43
2021/10/22 08:18:24;;;;;;;3.25;1.02;;;;;;;;;;5131508;27;20019;-42
2021/10/22 08:21:01;;;;;;;4.20;1.42;;;;;;;;;;5119182;27;20065;-43
2021/10/22 08:23:27;;;;;;;4.63;1.40;;;;;;;;;;5130907;27;20127;-42
2021/10/22 08:25:53;;;;;;;4.85;1.35;;;;;;;;;;5132647;27;20023;-45
2021/10/22 08:28:20;;;;;;;3.88;1.30;;;;;;;;;;5133102;27;20117;-43
2021/10/22 08:30:54;;;;;;;3.97;1.13;;;;;;;;;;5130898;27;20452;-42
2021/10/22 08:33:20;;;;;;;3.78;1.45;;;;;;;;;;5119310;27;20115;-41
2021/10/22 08:35:46;;;;;;;2.75;1.08;;;;;;;;;;5113321;27;20040;-42
2021/10/22 08:38:12;;;;;;;3.20;1.10;;;;;;;;;;5132833;27;20467;-42
2021/10/22 08:40:38;;;;;;;3.35;0.82;;;;;;;;;;5130509;27;20019;-42
2021/10/22 08:43:05;;;;;;;3.88;1.60;;;;;;;;;;5130617;27;20045;-42
2021/10/22 08:45:34;;;;;;;1.67;0.80;;;;;;;;;;5132748;27;20023;-42
2021/10/22 08:48:04;;;;;;;3.22;1.10;;;;;;;;;;5117824;27;20508;-42
2021/10/22 08:50:30;;;;;;;3.97;1.20;;;;;;;;;;5118683;27;20015;-42
2021/10/22 08:52:56;;;;;;;1.88;0.98;;;;;;;;;;5122069;27;20067;-43
2021/10/22 08:55:22;;;;;;;3.15;1.00;;;;;;;;;;5123331;27;20059;-42
2021/10/22 08:57:49;;;;;;;3.13;1.08;;;;;;;;;;5112647;28;20016;-41
2021/10/22 09:00:25;;;;;;;3.03;1.10;;;;;;;;;;5112664;28;20015;-42
2021/10/22 09:02:52;;;;;;;1.20;0.77;;;;;;;;;;5131721;27;20042;-41
2021/10/22 09:05:23;;;;;;;4.28;1.13;;;;;;;;;;5112633;28;20027;-41
2021/10/22 09:07:49;;;;;;;3.22;1.02;;;;;;;;;;5127824;28;20535;-42
2021/10/22 09:10:15;;;;;;;4.93;0.90;;;;;;;;;;5118124;28;20372;-42
2021/10/22 09:12:52;;;;;;;3.90;1.20;;;;;;;;;;5097750;28;20027;-42
2021/10/22 09:15:20;;;;;;;3.08;1.30;;;;;;;;;;5132773;28;20025;-42
2021/10/22 09:17:47;;;;;;;2.75;0.93;;;;;;;;;;5125327;28;20120;-43
2021/10/22 09:20:14;;;;;;;4.32;1.58;;;;;;;;;;5119636;28;20110;-43
2021/10/22 09:22:43;;;;;;;4.10;0.98;;;;;;;;;;5126440;28;20031;-44
2021/10/22 09:25:12;;;;;;;2.45;0.88;;;;;;;;;;5125088;28;20061;-42
2021/10/22 09:27:38;;;;;;;2.47;1.17;;;;;;;;;;5132265;28;20065;-45
2021/10/22 09:30:06;;;;;;;2.53;1.10;;;;;;;;;;5123897;28;20027;-42
2021/10/22 09:32:32;;;;;;;2.10;1.08;;;;;;;;;;5111916;28;20114;-42
2021/10/22 09:34:58;;;;;;;3.35;1.13;;;;;;;;;;5114980;28;20087;-45
2021/10/22 09:37:35;;;;;;;2.72;1.13;;;;;;;;;;5116175;28;20019;-43
2021/10/22 09:40:01;;;;;;;3.88;1.45;;;;;;;;;;5114977;28;20024;-42
2021/10/22 09:42:28;;;;;;;2.67;1.13;;;;;;;;;;5116062;28;20077;-43
2021/10/22 09:44:54;;;;;;;2.50;1.08;;;;;;;;;;5115018;28;20020;-42
2021/10/22 09:47:21;;;;;;;7.55;2.35;;;;;;;;;;5116012;28;20019;-42
2021/10/22 09:49:52;;;;;;;7.82;2.20;;;;;;;;;;5115869;28;20020;-42
2021/10/22 09:52:21;;;;;;;4.93;1.73;;;;;;;;;;5115518;28;20511;-42
2021/10/22 09:54:48;;;;;;;7.28;2.25;;;;;;;;;;5115370;28;20047;-42
2021/10/22 09:57:17;;;;;;;11.85;3.05;;;;;;;;;;5115846;28;20097;-43
2021/10/22 09:59:44;;;;;;;7.53;2.35;;;;;;;;;;5115851;28;20020;-42
2021/10/22 10:02:10;;;;;;;7.18;2.13;;;;;;;;;;5128672;27;20623;-44
2021/10/22 10:04:36;;;;;;;4.45;1.98;;;;;;;;;;5118308;27;20027;-42
2021/10/22 10:07:04;;;;;;;10.80;2.78;;;;;;;;;;5114542;27;20111;-43
2021/10/22 10:09:30;;;;;;;4.63;1.83;;;;;;;;;;5115290;27;20027;-45
2021/10/22 10:11:57;;;;;;;7.28;2.33;;;;;;;;;;5097458;27;20049;-43
2021/10/22 10:14:26;;;;;;;7.80;2.00;;;;;;;;;;5134075;27;20059;-42
2021/10/22 10:16:53;;;;;;;6.28;1.75;;;;;;;;;;5118529;27;20031;-42
2021/10/22 10:19:24;;;;;;;5.85;1.70;;;;;;;;;;5135630;27;20034;-42
2021/10/22 10:21:52;;;;;;;4.97;1.50;;;;;;;;;;5123976;27;20019;-42
2021/10/22 10:24:20;;;;;;;4.43;1.40;;;;;;;;;;5135574;27;20030;-42
2021/10/22 10:27:00;;;;;;;6.05;1.52;;;;;;;;;;5131635;27;20020;-41
2021/10/22 10:29:31;;;;;;;6.05;1.50;;;;;;;;;;5115233;28;20093;-42
2021/10/22 10:32:16;;;;;;;3.95;1.58;;;;;;;;;;5114300;28;20015;-43
2021/10/22 10:34:44;;;;;;;3.67;2.03;;;;;;;;;;5115100;27;20112;-45
2021/10/22 10:37:22;;;;;;;4.40;1.75;;;;;;;;;;5122052;27;20110;-43
2021/10/22 10:39:48;;;;;;;5.50;1.67;;;;;;;;;;5124767;27;20019;-43
2021/10/22 10:42:21;;;;;;;4.43;1.40;;;;;;;;;;5114029;27;20090;-42
2021/10/22 10:44:48;;;;;;;3.05;1.17;;;;;;;;;;5103685;27;20460;-43
2021/10/22 10:47:30;;;;;;;5.00;1.50;;;;;;;;;;5133113;27;20066;-43
2021/10/22 10:49:56;;;;;;;6.18;1.42;;;;;;;;;;5113958;28;20051;-42
2021/10/22 10:52:43;;;;;;;3.60;1.33;;;;;;;;;;5114773;28;20027;-44
2021/10/22 10:55:12;;;;;;;4.95;1.30;;;;;;;;;;5124606;27;20020;-42
2021/10/22 10:57:57;;;;;;;3.42;1.48;;;;;;;;;;5134650;27;20569;-42
2021/10/22 11:00:25;;;;;;;5.10;1.60;;;;;;;;;;5133367;27;20027;-42
2021/10/22 11:03:03;;;;;;;3.50;0.90;;;;;;;;;;5121337;27;20504;-42
2021/10/22 11:05:54;;;;;;;6.63;1.77;;;;;;;;;;5114243;28;20043;-43
2021/10/22 11:08:36;;;;;;;1.95;1.10;;;;;;;;;;5114551;28;20357;-44
2021/10/22 11:11:23;;;;;;;3.95;1.48;;;;;;;;;;5113943;27;20027;-42
2021/10/22 11:13:50;;;;;;;4.20;1.50;;;;;;;;;;5125528;27;20012;-43
2021/10/22 11:18:55;;;;;;;5.72;1.30;;;;;;;;;;5129735;27;20042;-42
2021/10/22 11:21:22;;;;;;;3.45;1.08;;;;;;;;;;5116736;27;20020;-42
2021/10/22 11:23:49;;;;;;;2.53;1.10;;;;;;;;;;5114085;28;20030;-42
2021/10/22 11:26:19;;;;;;;4.88;1.58;;;;;;;;;;5113031;28;20038;-42
2021/10/22 11:28:45;;;;;;;4.65;1.20;;;;;;;;;;5113922;28;20016;-42
2021/10/22 11:31:11;;;;;;;3.70;1.20;;;;;;;;;;5118966;27;20022;-42
2021/10/22 11:33:42;;;;;;;2.50;1.13;;;;;;;;;;5132569;27;20023;-43
2021/10/22 11:36:08;;;;;;;2.80;1.40;;;;;;;;;;5133414;27;20054;-42
2021/10/22 11:38:34;;;;;;;3.55;1.20;;;;;;;;;;5134485;27;20367;-41
2021/10/22 11:41:18;;;;;;;2.33;0.70;;;;;;;;;;5112897;28;20020;-42
2021/10/22 11:44:03;;;;;;;4.22;1.30;;;;;;;;;;5113483;28;20028;-42
2021/10/22 11:46:41;;;;;;;2.70;1.30;;;;;;;;;;5116351;27;20019;-43
2021/10/22 11:49:07;;;;;;;3.88;1.00;;;;;;;;;;5112784;28;20030;-42
2021/10/22 11:51:33;;;;;;;1.80;0.80;;;;;;;;;;5120654;27;20028;-42
2021/10/22 11:53:59;;;;;;;6.68;1.20;;;;;;;;;;5112602;28;20032;-44
2021/10/22 11:56:26;;;;;;;3.90;1.60;;;;;;;;;;5113119;28;20170;-42
2021/10/22 11:58:52;;;;;;;4.50;0.93;;;;;;;;;;5113432;28;20156;-42
2021/10/22 12:01:21;;;;;;;2.03;0.95;;;;;;;;;;5123717;27;20031;-42
2021/10/22 12:03:55;;;;;;;2.40;1.23;;;;;;;;;;5124457;27;20019;-44
2021/10/22 12:06:21;;;;;;;3.33;1.42;;;;;;;;;;5113395;28;20027;-42
2021/10/22 12:08:47;;;;;;;2.47;1.05;;;;;;;;;;5112853;28;20477;-44
2021/10/22 12:11:14;;;;;;;3.33;1.27;;;;;;;;;;5117772;27;20027;-42
2021/10/22 12:13:43;;;;;;;1.58;0.75;;;;;;;;;;5133540;27;20079;-45
2021/10/22 12:16:17;;;;;;;2.85;0.80;;;;;;;;;;5131024;27;20027;-42
2021/10/22 12:19:01;;;;;;;2.15;0.90;;;;;;;;;;5133482;27;20487;-43
2021/10/22 12:21:28;;;;;;;2.97;0.80;;;;;;;;;;5115731;27;20352;-43
2021/10/22 12:23:57;;;;;;;2.35;0.95;;;;;;;;;;5132976;27;20026;-43
2021/10/22 12:26:24;;;;;;;2.13;0.90;;;;;;;;;;5132977;27;20011;-43
2021/10/22 12:29:11;;;;;;;2.10;0.75;;;;;;;;;;5133184;27;20072;-42
2021/10/22 12:31:39;;;;;;;2.90;1.23;;;;;;;;;;5114992;27;20021;-42
2021/10/22 12:34:06;;;;;;;3.58;0.95;;;;;;;;;;5111833;28;20051;-42
2021/10/22 12:36:33;;;;;;;2.88;1.48;;;;;;;;;;5113867;27;20049;-42
2021/10/22 12:39:00;;;;;;;3.22;1.00;;;;;;;;;;5111997;28;20391;-42
2021/10/22 12:41:29;;;;;;;2.08;0.80;;;;;;;;;;5119798;27;20015;-42
2021/10/22 12:44:11;;;;;;;3.95;1.30;;;;;;;;;;5132645;27;20057;-42
2021/10/22 12:46:51;;;;;;;2.30;0.80;;;;;;;;;;5131468;27;20023;-42
2021/10/22 12:49:17;;;;;;;2.88;0.80;;;;;;;;;;5123876;27;20023;-42
2021/10/22 12:51:43;;;;;;;2.40;0.88;;;;;;;;;;5121960;27;20027;-43
2021/10/22 12:54:09;;;;;;;3.22;1.00;;;;;;;;;;5118531;27;20055;-42
2021/10/22 12:56:37;;;;;;;3.13;0.95;;;;;;;;;;5094264;28;20054;-42
2021/10/22 12:59:09;;;;;;;2.13;0.80;;;;;;;;;;5110793;28;20011;-46
2021/10/22 13:01:42;;;;;;;3.05;1.02;;;;;;;;;;5112139;28;20476;-44
2021/10/22 13:04:09;;;;;;;1.17;0.65;;;;;;;;;;5111923;28;20024;-44
2021/10/22 13:07:13;;;;;;;2.03;0.90;;;;;;;;;;5116735;28;20019;-44
2021/10/22 13:09:50;;;;;;;3.65;0.82;;;;;;;;;;5114444;28;20077;-43
2021/10/22 13:20:34;;;;;;;4.00;0.90;;;;;;;;;;5124239;28;20426;-43
2021/10/22 13:23:01;;;;;;;1.45;0.88;;;;;;;;;;5110635;28;20465;-43
2021/10/22 13:25:28;;;;;;;5.40;1.25;;;;;;;;;;5111974;28;20020;-44
2021/10/22 13:27:54;;;;;;;5.07;1.00;;;;;;;;;;5111722;28;20040;-43
2021/10/22 13:30:30;;;;;;;6.03;1.52;;;;;;;;;;5110944;28;20012;-44
2021/10/22 13:33:00;;;;;;;4.30;1.38;;;;;;;;;;5111686;28;20023;-44
2021/10/22 13:35:26;;;;;;;6.30;2.03;;;;;;;;;;5123498;28;20122;-44
2021/10/22 13:37:53;;;;;;;5.10;0.90;;;;;;;;;;5131592;28;20069;-45
2021/10/22 13:40:19;;;;;;;7.70;1.60;;;;;;;;;;5131200;28;20070;-43
2021/10/22 13:42:47;;;;;;;4.85;1.10;;;;;;;;;;5131104;28;20027;-43
2021/10/22 13:45:13;;;;;;;5.28;1.20;;;;;;;;;;5113093;28;20046;-44
2021/10/22 13:47:39;;;;;;;21.20;1.83;;;;;;;;;;5126986;28;20497;-64
2021/10/22 13:50:07;;;;;;;4.80;1.17;;;;;;;;;;5126338;28;20016;-53
2021/10/22 13:52:33;;;;;;;6.25;1.20;;;;;;;;;;5113157;28;20031;-50
2021/10/22 13:55:00;;;;;;;5.25;1.77;;;;;;;;;;5110572;28;20156;-48
2021/10/22 13:57:26;;;;;;;9.85;1.40;;;;;;;;;;5118348;28;20031;-53
2021/10/22 13:59:52;;;;;;;69.88;4.03;;;;;;;;;;5110560;28;20349;-47
2021/10/22 14:02:18;;;;;;;7.45;1.48;;;;;;;;;;5127418;28;20219;-46
2021/10/22 14:04:44;;;;;;;15.77;2.22;;;;;;;;;;5131987;28;20027;-47
2021/10/22 14:07:11;;;;;;;5.80;1.73;;;;;;;;;;5130995;28;20027;-46
2021/10/22 14:09:41;;;;;;;5.45;1.60;;;;;;;;;;5130774;28;20424;-45
2021/10/22 14:31:14;;;;;;;5.25;1.75;;;;;;;;;;5117597;27;20479;-45
2021/10/22 14:33:40;;;;;;;4.78;1.40;;;;;;;;;;5114849;28;20028;-45
2021/10/22 14:36:06;;;;;;;4.78;1.63;;;;;;;;;;5116358;27;20082;-45
2021/10/22 14:38:32;;;;;;;2.33;1.20;;;;;;;;;;5135170;27;20023;-45
2021/10/22 14:40:59;;;;;;;5.30;1.50;;;;;;;;;;5116194;27;20035;-45
2021/10/22 14:43:32;;;;;;;4.32;1.35;;;;;;;;;;5133289;27;20479;-45
2021/10/22 14:48:34;;;;;;;3.60;1.52;;;;;;;;;;5114195;27;20035;-45
2021/10/22 14:51:06;;;;;;;2.55;1.08;;;;;;;;;;5125069;27;20024;-45
2021/10/22 14:53:56;;;;;;;5.00;1.50;;;;;;;;;;5109424;27;20028;-46
2021/10/22 14:56:22;;;;;;;6.75;1.50;;;;;;;;;;5115989;27;20074;-44
2021/10/22 14:58:48;;;;;;;4.57;1.48;;;;;;;;;;5128077;27;20360;-44
2021/10/22 15:01:15;;;;;;;8.32;1.70;;;;;;;;;;5116187;27;20024;-44
2021/10/22 15:03:41;;;;;;;4.22;1.10;;;;;;;;;;5114391;28;20020;-43
2021/10/22 15:06:07;;;;;;;4.07;1.20;;;;;;;;;;5124455;27;20019;-43
2021/10/22 15:08:33;;;;;;;5.90;1.52;;;;;;;;;;5134926;27;20341;-43
2021/10/22 15:10:59;;;;;;;6.05;1.40;;;;;;;;;;5134700;27;20016;-46
2021/10/22 15:13:25;;;;;;;7.68;2.03;;;;;;;;;;5134123;27;20044;-44
2021/10/22 15:15:51;;;;;;;10.10;1.50;;;;;;;;;;5130061;27;20459;-44
2021/10/22 15:18:19;;;;;;;5.57;2.10;;;;;;;;;;5133618;27;20019;-45
2021/10/22 15:20:46;;;;;;;6.35;2.47;;;;;;;;;;5130546;27;20031;-45
2021/10/22 15:23:12;;;;;;;4.43;1.52;;;;;;;;;;5115860;27;20027;-45
2021/10/22 15:25:38;;;;;;;4.32;1.40;;;;;;;;;;5114288;28;20099;-44
2021/10/22 15:28:04;;;;;;;4.93;1.25;;;;;;;;;;5113000;28;20050;-45